Latest Coastal Weather Observations for Troughton Island

IDW60701

Issued at 12:22 am WST Sunday 6 September 2015 (issued every 10 minutes, with the page automatically refreshed every 10 minutes)

About coastal observations | Map of coastal stations | Coastal observations for WA | Marine services | Other Formats
Station Details ID: 001007 Name: TROUGHTON ISLAND Lat: -13.75 Lon: 126.15 Height: 6.0 m
Data from the previous 72 hours. | See also: Recent months at Troughton Island
Date/Time
WST
Temp

°C
Wind Pressure Rain
since 9am
mm
Weather Cloud Vis
km
Sea
Height
m
Swell
Dir
 
Speed
knots
Gust
knots
hPa Trend Height
m
Period
s
Dir
06/12:00am 25.1 WNW 6 6 1016.2 - 0.0 - - - - - - -
 
Date/Time
WST
Temp

°C
Wind Pressure Rain
since 9am
mm
Weather Cloud Vis
km
Sea
Height
m
Swell
Dir
 
Speed
knots
Gust
knots
hPa Trend Height
m
Period
s
Dir
05/11:30pm 24.8 WNW 5 6 1016.5 - 0.0 - - - - - - -
05/11:00pm 25.1 NW 4 5 1016.8 - 0.0 - - - - - - -
05/10:30pm 25.0 NW 5 5 1017.1 - 0.0 - - - - - - -
05/10:00pm 25.1 NW 5 5 1017.2 - 0.0 - - - - - - -
05/09:30pm 25.1 NW 5 6 1017.1 - 0.0 - - - - - - -
05/09:00pm 25.0 NW 6 6 1017.0 - 0.0 - - - - - - -
05/08:30pm 25.3 NW 6 6 1016.8 - 0.0 - - - - - - -
05/08:00pm 25.6 NW 6 7 1016.7 - 0.0 - - - - - - -
05/07:30pm 25.8 WNW 7 7 1016.4 - 0.0 - - - - - - -
05/07:00pm 26.0 NW 7 7 1015.9 - 0.0 - - - - - - -
05/06:30pm 26.3 WNW 7 7 1015.6 - 0.0 - - - - - - -
05/06:00pm 26.5 WNW 7 7 1015.1 - 0.0 - - - - - - -
05/05:30pm 26.9 NW 7 8 1014.8 - 0.0 - - - - - - -
05/05:00pm 27.7 NW 7 9 1014.4 - 0.0 - - - - - - -
05/04:30pm 28.2 NW 8 9 1014.1 - 0.0 - - - - - - -
05/04:00pm 28.5 NNW 9 11 1013.9 - 0.0 - - - - - - -
05/03:30pm 29.2 NW 8 10 1013.9 - 0.0 - - - - - - -
05/03:00pm 29.6 NNW 8 9 1014.0 - 0.0 - - - - - - -
05/02:30pm 29.0 N 7 9 1014.2 - 0.0 - - - - - - -
05/02:00pm 29.1 N 7 8 1014.4 - 0.0 - - - - - - -
05/01:30pm 28.5 N 8 10 1014.8 - 0.0 - - - - - - -
05/01:00pm 28.7 NNE 7 9 1015.0 - 0.0 - - - - - - -
05/12:30pm 28.7 N 6 8 1015.5 - 0.0 - - - - - - -
05/12:00pm 28.9 NNE 7 9 1016.1 - 0.0 - - - - - - -
05/11:30am 28.5 NE 7 9 1016.7 - 0.0 - - - - - - -
05/11:00am 28.9 NE 6 9 1017.2 - 0.0 - - - - - - -
05/10:30am 28.5 NE 7 8 1017.7 - 0.0 - - - - - - -
05/10:00am 28.3 ENE 8 9 1018.2 - 0.0 - - - - - - -
05/09:30am 27.8 SW 5 6 1018.1 - 0.0 - - - - - - -
05/09:00am 27.9 SW 4 6 1018.0 - 0.0 - - - - - - -
05/08:30am 27.3 SSW 3 6 1017.8 - 0.0 - - - - - - -
05/08:00am 27.3 S 5 7 1017.7 - 0.0 - - - - - - -
05/07:30am 26.5 SSW 5 7 1017.6 - 0.0 - - - - - - -
05/07:00am 26.1 SW 6 7 1017.3 - 0.0 - - - - - - -
05/06:30am 25.6 SW 6 8 1017.0 - 0.0 - - - - - - -
05/06:00am 25.2 SW 6 7 1016.6 - 0.0 - - - - - - -
05/05:30am 25.1 SW 6 7 1016.1 - 0.0 - - - - - - -
05/05:00am 25.1 WSW 6 7 1015.8 - 0.0 - - - - - - -
05/04:30am 25.1 W 5 6 1015.5 - 0.0 - - - - - - -
05/04:00am 25.1 W 6 7 1015.2 - 0.0 - - - - - - -
05/03:30am 25.1 W 6 6 1015.1 - 0.0 - - - - - - -
05/03:00am 25.2 W 7 8 1015.0 - 0.0 - - - - - - -
05/02:30am 25.0 W 7 8 1015.0 - 0.0 - - - - - - -
05/02:00am 25.2 WNW 8 8 1015.0 - 0.0 - - - - - - -
05/01:30am 25.1 WNW 8 9 1015.1 - 0.0 - - - - - - -
05/01:00am 25.1 WNW 8 9 1015.4 - 0.0 - - - - - - -
05/12:30am 24.8 NW 7 7 1015.7 - 0.0 - - - - - - -
05/12:00am 24.6 WNW 4 5 1016.2 - 0.0 - - - - - - -
 
Date/Time
WST
Temp

°C
Wind Pressure Rain
since 9am
mm
Weather Cloud Vis
km
Sea
Height
m
Swell
Dir
 
Speed
knots
Gust
knots
hPa Trend Height
m
Period
s
Dir
04/11:30pm 24.8 CALM 0 0 1016.5 - 0.0 - - - - - - -
04/11:00pm 24.9 CALM 0 0 1016.8 - 0.0 - - - - - - -
04/10:30pm 24.8 CALM 0 0 1017.1 - 0.0 - - - - - - -
04/10:00pm 24.8 CALM 0 0 1017.1 - 0.0 - - - - - - -
04/09:30pm 25.0 CALM 0 0 1017.3 - 0.0 - - - - - - -
04/09:00pm 25.3 CALM 0 0 1017.1 - 0.0 - - - - - - -
04/08:30pm 25.7 N 3 4 1016.9 - 0.0 - - - - - - -
04/08:00pm 25.9 N 4 5 1016.6 - 0.0 - - - - - - -
04/07:30pm 25.9 N 5 7 1016.2 - 0.0 - - - - - - -
04/07:00pm 26.1 N 7 10 1015.9 - 0.0 - - - - - - -
04/06:30pm 26.2 N 9 11 1015.5 - 0.0 - - - - - - -
04/06:00pm 26.3 NNW 9 13 1015.0 - 0.0 - - - - - - -
04/05:30pm 26.6 N 9 13 1014.8 - 0.0 - - - - - - -
04/05:00pm 26.8 N 10 13 1014.5 - 0.0 - - - - - - -
04/04:30pm 27.2 N 10 14 1014.3 - 0.0 - - - - - - -
04/04:00pm 27.4 N 11 14 1014.0 - 0.0 - - - - - - -
04/03:30pm 28.1 N 11 14 1013.9 - 0.0 - - - - - - -
04/03:00pm 27.9 N 11 14 1013.8 - 0.0 - - - - - - -
04/02:30pm 27.6 N 12 16 1013.8 - 0.0 - - - - - - -
04/02:00pm 27.1 N 12 15 1013.9 - 0.0 - - - - - - -
04/01:30pm 27.6 N 11 13 1014.2 - 0.0 - - - - - - -
04/01:00pm 28.0 N 8 11 1014.6 - 0.0 - - - - - - -
04/12:30pm 28.2 N 7 10 1015.0 - 0.0 - - - - - - -
04/12:00pm 27.8 N 8 10 1015.5 - 0.0 - - - - - - -
04/11:30am 29.1 NE 7 9 1015.9 - 0.0 - - - - - - -
04/11:00am 29.2 NE 7 9 1016.2 - 0.0 - - - - - - -
04/10:30am 29.5 SE 6 7 1016.4 - 0.0 - - - - - - -
04/10:00am 28.6 SSE 5 7 1016.6 - 0.0 - - - - - - -
04/09:30am 27.5 S 6 8 1016.9 - 0.0 - - - - - - -
04/09:00am 28.2 SSW 7 8 1016.9 - 0.0 - - - - - - -
04/08:30am 27.7 SW 6 8 1016.8 - 0.0 - - - - - - -
04/08:00am 27.5 SW 6 7 1016.6 - 0.0 - - - - - - -
04/07:30am 27.3 SW 5 6 1016.5 - 0.0 - - - - - - -
04/07:00am 26.2 SW 4 5 1016.4 - 0.0 - - - - - - -
04/06:30am 25.7 WSW 7 9 1016.0 - 0.0 - - - - - - -
04/06:00am 25.2 SW 9 11 1015.6 - 0.0 - - - - - - -
04/05:30am 25.1 SW 8 9 1015.4 - 0.0 - - - - - - -
04/05:00am 25.2 SW 9 11 1015.1 - 0.0 - - - - - - -
04/04:30am 25.3 SW 10 11 1014.8 - 0.0 - - - - - - -
04/04:00am 25.2 SW 10 12 1014.5 - 0.0 - - - - - - -
04/03:30am 25.2 WSW 10 11 1014.5 - 0.0 - - - - - - -
04/03:00am 25.2 WSW 11 13 1014.6 - 0.0 - - - - - - -
04/02:30am 25.2 WSW 11 13 1014.6 - 0.0 - - - - - - -
04/02:00am 25.3 WSW 10 11 1014.8 - 0.0 - - - - - - -
04/01:30am 25.2 WSW 11 12 1014.8 - 0.0 - - - - - - -
04/01:00am 25.3 WSW 10 12 1015.1 - 0.0 - - - - - - -
04/12:30am 25.3 WSW 12 15 1015.4 - 0.0 - - - - - - -
04/12:00am 25.4 WSW 13 14 1015.7 - 0.0 - - - - - - -
 
Date/Time
WST
Temp

°C
Wind Pressure Rain
since 9am
mm
Weather Cloud Vis
km
Sea
Height
m
Swell
Dir
 
Speed
knots
Gust
knots
hPa Trend Height
m
Period
s
Dir
03/11:30pm 25.4 SW 11 13 1016.2 - 0.0 - - - - - - -
03/11:00pm 25.4 SW 11 12 1016.5 - 0.0 - - - - - - -
03/10:30pm 25.4 WSW 11 12 1016.7 - 0.0 - - - - - - -
03/10:00pm 25.4 WSW 11 13 1016.6 - 0.0 - - - - - - -
03/09:30pm 25.3 WSW 11 13 1016.7 - 0.0 - - - - - - -
03/09:00pm 25.3 WSW 11 12 1016.7 - 0.0 - - - - - - -
03/08:30pm 25.5 WSW 11 13 1016.7 - 0.0 - - - - - - -
03/08:00pm 25.6 WSW 11 13 1016.5 - 0.0 - - - - - - -
03/07:30pm 25.6 W 9 11 1016.3 - 0.0 - - - - - - -
03/07:00pm 25.7 W 10 12 1016.0 - 0.0 - - - - - - -
03/06:30pm 25.9 W 9 11 1015.6 - 0.0 - - - - - - -
03/06:00pm 25.9 WNW 9 11 1015.0 - 0.0 - - - - - - -
03/05:30pm 26.2 WNW 9 10 1014.7 - 0.0 - - - - - - -
03/05:00pm 27.1 WNW 9 11 1014.6 - 0.0 - - - - - - -
03/04:30pm 27.9 WNW 7 8 1014.5 - 0.0 - - - - - - -
03/04:00pm 28.2 WNW 7 8 1014.5 - 0.0 - - - - - - -
03/03:30pm 28.5 NNW 8 10 1014.3 - 0.0 - - - - - - -
03/03:00pm 28.8 NNW 10 12 1014.1 - 0.0 - - - - - - -
03/02:30pm 28.7 N 10 13 1014.1 - 0.0 - - - - - - -
03/02:00pm 29.0 NNW 12 14 1014.1 - 0.0 - - - - - - -
03/01:30pm 29.8 NNW 12 15 1014.1 - 0.0 - - - - - - -
03/01:00pm 30.6 NNW 11 14 1014.4 - 0.0 - - - - - - -
03/12:30pm 29.7 NW 11 14 1014.5 - 0.0 - - - - - - -
03/12:00pm 30.4 NNW 13 15 1014.8 - 0.0 - - - - - - -
03/11:30am 28.5 N 12 15 1015.3 - 0.0 - - - - - - -
03/11:00am 30.2 NW 5 8 1015.4 - 0.0 - - - - - - -
03/10:30am 29.8 WSW 5 7 1015.5 - 0.0 - - - - - - -
03/10:00am 30.2 SW 5 6 1015.8 - 0.0 - - - - - - -
03/09:30am 29.2 SW 6 8 1016.1 - 0.0 - - - - - - -
03/09:00am 29.1 SW 8 9 1016.2 - 0.0 - - - - - - -
03/08:30am 28.0 SSW 9 10 1016.3 - 0.0 - - - - - - -
03/08:00am 27.6 SSW 8 9 1016.3 - 0.0 - - - - - - -
03/07:30am 26.8 SSW 9 10 1016.2 - 0.0 - - - - - - -
03/07:00am 26.3 S 8 9 1016.1 - 0.0 - - - - - - -
03/06:30am 25.7 SSW 11 14 1015.9 - 0.0 - - - - - - -
03/06:00am 25.3 SSW 12 14 1015.6 - 0.0 - - - - - - -
03/05:30am 25.0 SW 12 14 1015.3 - 0.0 - - - - - - -
03/05:00am 25.1 SW 13 16 1015.0 - 0.0 - - - - - - -
03/04:30am 25.1 SW 14 16 1014.7 - 0.0 - - - - - - -
03/04:00am 25.3 SW 15 18 1014.5 - 0.0 - - - - - - -
03/03:30am 25.4 SW 15 19 1014.5 - 0.0 - - - - - - -
03/03:00am 25.4 SW 17 20 1014.4 - 0.0 - - - - - - -
03/02:30am 25.4 SW 14 18 1014.7 - 0.0 - - - - - - -
03/02:00am 25.4 SW 15 18 1014.8 - 0.0 - - - - - - -
03/01:30am 25.4 SW 15 18 1015.1 - 0.0 - - - - - - -
03/01:00am 25.3 SW 15 17 1015.3 - 0.0 - - - - - - -
03/12:30am 25.4 WSW 14 16 1015.5 - 0.0 - - - - - - -

Other Formats:

Comma delimited format used in spreadsheet applications
http://www.bom.gov.au/fwo/IDW60701/IDW60701.94102.axf

JavaScript Object Notation format (JSON) in row-major order
http://www.bom.gov.au/fwo/IDW60701/IDW60701.94102.json